sensor_id;sensor_type;location;lat;lon;timestamp;pressure;altitude;pressure_sealevel;temperature;humidity
32320;BME280;19080;51.750;5.888;2023-03-25T00:02:25;99921.94;;;9.61;100.00
32320;BME280;19080;51.750;5.888;2023-03-25T00:04:53;99986.59;;;10.01;100.00
32320;BME280;19080;51.750;5.888;2023-03-25T00:07:20;99917.53;;;9.61;100.00
32320;BME280;19080;51.750;5.888;2023-03-25T00:09:48;99914.88;;;9.61;100.00
32320;BME280;19080;51.750;5.888;2023-03-25T00:12:15;100006.09;;;10.18;100.00
32320;BME280;19080;51.750;5.888;2023-03-25T00:14:45;99918.44;;;9.66;100.00
32320;BME280;19080;51.750;5.888;2023-03-25T00:17:21;99906.91;;;9.55;100.00
32320;BME280;19080;51.750;5.888;2023-03-25T00:19:49;99906.03;;;9.64;100.00
32320;BME280;19080;51.750;5.888;2023-03-25T00:22:18;99906.03;;;9.62;100.00
32320;BME280;19080;51.750;5.888;2023-03-25T00:24:45;99922.84;;;9.67;100.00
32320;BME280;19080;51.750;5.888;2023-03-25T00:27:11;100002.53;;;10.16;100.00
32320;BME280;19080;51.750;5.888;2023-03-25T00:29:40;99982.19;;;10.06;100.00
32320;BME280;19080;51.750;5.888;2023-03-25T00:32:07;100001.72;;;10.20;100.00
32320;BME280;19080;51.750;5.888;2023-03-25T00:34:34;100000.84;;;10.24;100.00
32320;BME280;19080;51.750;5.888;2023-03-25T00:37:01;99919.31;;;9.71;100.00
32320;BME280;19080;51.750;5.888;2023-03-25T00:39:27;99970.69;;;10.07;100.00
32320;BME280;19080;51.750;5.888;2023-03-25T00:41:54;99968.06;;;10.10;100.00
32320;BME280;19080;51.750;5.888;2023-03-25T00:44:22;99937.03;;;9.85;100.00
32320;BME280;19080;51.750;5.888;2023-03-25T00:46:50;99970.72;;;10.10;100.00
32320;BME280;19080;51.750;5.888;2023-03-25T00:49:16;99990.25;;;10.29;100.00
32320;BME280;19080;51.750;5.888;2023-03-25T00:51:43;99894.59;;;9.68;100.00
32320;BME280;19080;51.750;5.888;2023-03-25T00:54:19;99968.94;;;10.12;100.00
32320;BME280;19080;51.750;5.888;2023-03-25T00:56:49;99968.13;;;10.21;100.00
32320;BME280;19080;51.750;5.888;2023-03-25T00:59:15;99971.59;;;10.14;100.00
32320;BME280;19080;51.750;5.888;2023-03-25T01:01:42;99881.31;;;9.60;100.00
32320;BME280;19080;51.750;5.888;2023-03-25T01:04:11;99837.09;;;9.39;100.00
32320;BME280;19080;51.750;5.888;2023-03-25T01:06:40;99956.53;;;10.03;100.00
32320;BME280;19080;51.750;5.888;2023-03-25T01:09:12;99991.13;;;10.28;100.00
32320;BME280;19080;51.750;5.888;2023-03-25T01:11:42;99850.34;;;9.41;100.00
32320;BME280;19080;51.750;5.888;2023-03-25T01:14:15;99976.97;;;10.21;100.00
32320;BME280;19080;51.750;5.888;2023-03-25T01:16:43;99968.94;;;10.15;100.00
32320;BME280;19080;51.750;5.888;2023-03-25T01:19:11;99890.19;;;9.70;100.00
32320;BME280;19080;51.750;5.888;2023-03-25T01:21:38;99919.38;;;9.84;100.00
32320;BME280;19080;51.750;5.888;2023-03-25T01:24:05;99905.19;;;9.69;100.00
32320;BME280;19080;51.750;5.888;2023-03-25T01:26:33;99914.03;;;9.74;100.00
32320;BME280;19080;51.750;5.888;2023-03-25T01:29:00;99939.69;;;9.83;100.00
32320;BME280;19080;51.750;5.888;2023-03-25T01:31:29;100003.41;;;10.14;100.00
32320;BME280;19080;51.750;5.888;2023-03-25T01:33:56;99984.84;;;10.09;100.00
32320;BME280;19080;51.750;5.888;2023-03-25T01:36:25;99959.16;;;9.94;100.00
32320;BME280;19080;51.750;5.888;2023-03-25T01:38:56;99964.47;;;9.91;100.00
32320;BME280;19080;51.750;5.888;2023-03-25T01:41:25;99908.72;;;9.68;100.00
32320;BME280;19080;51.750;5.888;2023-03-25T01:46:43;99899.81;;;9.54;100.00
32320;BME280;19080;51.750;5.888;2023-03-25T01:49:16;99979.47;;;9.91;100.00
32320;BME280;19080;51.750;5.888;2023-03-25T01:51:47;99887.41;;;9.41;100.00
32320;BME280;19080;51.750;5.888;2023-03-25T01:54:15;99959.09;;;9.77;100.00
32320;BME280;19080;51.750;5.888;2023-03-25T01:56:47;99899.75;;;9.39;100.00
32320;BME280;19080;51.750;5.888;2023-03-25T01:59:16;99889.94;;;9.20;100.00
32320;BME280;19080;51.750;5.888;2023-03-25T02:01:45;99971.47;;;9.77;100.00
32320;BME280;19080;51.750;5.888;2023-03-25T02:04:13;100005.06;;;9.83;100.00
32320;BME280;19080;51.750;5.888;2023-03-25T02:06:44;99898.81;;;9.25;100.00
32320;BME280;19080;51.750;5.888;2023-03-25T02:09:14;99953.72;;;9.58;100.00
32320;BME280;19080;51.750;5.888;2023-03-25T02:11:41;99988.22;;;9.74;100.00
32320;BME280;19080;51.750;5.888;2023-03-25T02:14:14;99953.66;;;9.47;100.00
32320;BME280;19080;51.750;5.888;2023-03-25T02:16:54;99870.44;;;8.99;100.00
32320;BME280;19080;51.750;5.888;2023-03-25T02:22:30;99984.66;;;9.66;100.00
32320;BME280;19080;51.750;5.888;2023-03-25T02:30:35;99996.75;;;9.22;100.00
32320;BME280;19080;51.750;5.888;2023-03-25T02:33:26;99952.50;;;9.05;100.00
32320;BME280;19080;51.750;5.888;2023-03-25T02:38:47;99838.41;;;8.52;100.00
32320;BME280;19080;51.750;5.888;2023-03-25T02:41:23;99976.41;;;9.16;100.00
32320;BME280;19080;51.750;5.888;2023-03-25T02:44:10;99930.44;;;9.02;100.00
32320;BME280;19080;51.750;5.888;2023-03-25T02:46:49;99883.53;;;8.81;100.00
32320;BME280;19080;51.750;5.888;2023-03-25T02:49:22;99873.88;;;8.86;100.00
32320;BME280;19080;51.750;5.888;2023-03-25T02:52:05;99864.16;;;8.82;100.00
32320;BME280;19080;51.750;5.888;2023-03-25T02:54:36;99936.75;;;9.24;100.00
32320;BME280;19080;51.750;5.888;2023-03-25T02:57:06;99981.09;;;9.58;100.00
32320;BME280;19080;51.750;5.888;2023-03-25T02:59:35;99883.69;;;9.02;100.00
32320;BME280;19080;51.750;5.888;2023-03-25T03:02:07;99824.41;;;8.74;100.00
32320;BME280;19080;51.750;5.888;2023-03-25T03:04:51;99971.41;;;9.66;100.00
32320;BME280;19080;51.750;5.888;2023-03-25T03:07:28;99965.25;;;9.70;100.00
32320;BME280;19080;51.750;5.888;2023-03-25T03:10:17;99945.78;;;9.64;100.00
32320;BME280;19080;51.750;5.888;2023-03-25T03:12:52;99968.63;;;9.42;100.00
32320;BME280;19080;51.750;5.888;2023-03-25T03:15:36;99952.63;;;9.24;100.00
32320;BME280;19080;51.750;5.888;2023-03-25T03:21:11;99922.44;;;8.93;100.00
32320;BME280;19080;51.750;5.888;2023-03-25T03:29:28;99979.13;;;9.24;100.00
32320;BME280;19080;51.750;5.888;2023-03-25T03:32:01;99949.94;;;9.18;100.00
32320;BME280;19080;51.750;5.888;2023-03-25T03:34:39;99793.38;;;8.44;100.00
32320;BME280;19080;51.750;5.888;2023-03-25T03:37:16;99857.13;;;8.90;100.00
32320;BME280;19080;51.750;5.888;2023-03-25T03:39:46;99874.81;;;8.94;100.00
32320;BME280;19080;51.750;5.888;2023-03-25T03:42:16;99972.25;;;9.56;100.00
32320;BME280;19080;51.750;5.888;2023-03-25T03:44:48;99981.97;;;9.59;100.00
32320;BME280;19080;51.750;5.888;2023-03-25T03:47:23;99935.94;;;9.38;100.00
32320;BME280;19080;51.750;5.888;2023-03-25T03:49:56;99948.34;;;9.45;100.00
32320;BME280;19080;51.750;5.888;2023-03-25T03:52:30;99935.06;;;9.38;100.00
32320;BME280;19080;51.750;5.888;2023-03-25T03:55:12;99885.47;;;9.09;100.00
32320;BME280;19080;51.750;5.888;2023-03-25T03:57:44;99950.13;;;9.45;100.00
32320;BME280;19080;51.750;5.888;2023-03-25T04:00:12;99973.03;;;9.41;100.00
32320;BME280;19080;51.750;5.888;2023-03-25T04:03:08;99972.06;;;9.26;100.00
32320;BME280;19080;51.750;5.888;2023-03-25T04:05:46;99855.13;;;8.50;100.00
32320;BME280;19080;51.750;5.888;2023-03-25T04:08:26;99950.69;;;8.95;100.00
32320;BME280;19080;51.750;5.888;2023-03-25T04:10:57;99875.41;;;8.51;100.00
32320;BME280;19080;51.750;5.888;2023-03-25T04:13:32;99864.78;;;8.43;100.00
32320;BME280;19080;51.750;5.888;2023-03-25T04:16:00;99857.69;;;8.40;100.00
32320;BME280;19080;51.750;5.888;2023-03-25T04:18:27;99932.00;;;8.77;100.00
32320;BME280;19080;51.750;5.888;2023-03-25T04:20:55;99861.94;;;8.26;100.00
32320;BME280;19080;51.750;5.888;2023-03-25T04:23:21;99942.56;;;8.71;100.00
32320;BME280;19080;51.750;5.888;2023-03-25T04:25:48;99956.72;;;8.79;100.00
32320;BME280;19080;51.750;5.888;2023-03-25T04:28:20;99835.56;;;8.31;100.00
32320;BME280;19080;51.750;5.888;2023-03-25T04:30:49;99841.00;;;8.46;100.00
32320;BME280;19080;51.750;5.888;2023-03-25T04:33:22;99863.19;;;8.66;100.00
32320;BME280;19080;51.750;5.888;2023-03-25T04:35:48;99834.94;;;8.59;100.00
32320;BME280;19080;51.750;5.888;2023-03-25T04:38:19;99846.44;;;8.66;100.00
32320;BME280;19080;51.750;5.888;2023-03-25T04:40:46;99853.56;;;8.85;100.00
32320;BME280;19080;51.750;5.888;2023-03-25T04:43:16;99925.31;;;9.31;100.00
32320;BME280;19080;51.750;5.888;2023-03-25T04:45:43;99857.13;;;8.90;100.00
32320;BME280;19080;51.750;5.888;2023-03-25T04:48:20;99870.44;;;9.04;100.00
32320;BME280;19080;51.750;5.888;2023-03-25T04:50:47;99849.25;;;8.96;100.00
32320;BME280;19080;51.750;5.888;2023-03-25T04:53:17;99928.00;;;9.35;100.00
32320;BME280;19080;51.750;5.888;2023-03-25T04:55:44;99933.31;;;9.43;100.00
32320;BME280;19080;51.750;5.888;2023-03-25T04:58:13;99863.44;;;9.09;100.00
32320;BME280;19080;51.750;5.888;2023-03-25T05:00:45;99853.66;;;9.00;100.00
32320;BME280;19080;51.750;5.888;2023-03-25T05:03:12;99917.41;;;9.38;100.00
32320;BME280;19080;51.750;5.888;2023-03-25T05:05:41;99843.09;;;9.02;100.00
32320;BME280;19080;51.750;5.888;2023-03-25T05:08:08;99829.75;;;8.85;100.00
32320;BME280;19080;51.750;5.888;2023-03-25T05:10:36;99906.78;;;9.34;100.00
32320;BME280;19080;51.750;5.888;2023-03-25T05:13:05;99851.94;;;9.04;100.00
32320;BME280;19080;51.750;5.888;2023-03-25T05:15:34;99832.44;;;8.88;100.00
32320;BME280;19080;51.750;5.888;2023-03-25T05:18:12;99860.75;;;9.04;100.00
32320;BME280;19080;51.750;5.888;2023-03-25T05:20:42;99874.00;;;9.07;100.00
32320;BME280;19080;51.750;5.888;2023-03-25T05:23:11;99871.34;;;9.04;100.00
32320;BME280;19080;51.750;5.888;2023-03-25T05:25:45;99881.94;;;9.04;100.00
32320;BME280;19080;51.750;5.888;2023-03-25T05:28:13;99885.50;;;9.16;100.00
32320;BME280;19080;51.750;5.888;2023-03-25T05:30:42;99705.81;;;7.99;100.00
32320;BME280;19080;51.750;5.888;2023-03-25T05:33:13;99863.22;;;8.75;100.00
32320;BME280;19080;51.750;5.888;2023-03-25T05:35:44;99976.47;;;9.25;100.00
32320;BME280;19080;51.750;5.888;2023-03-25T05:38:11;99973.78;;;9.21;100.00
32320;BME280;19080;51.750;5.888;2023-03-25T05:40:39;99883.44;;;8.69;100.00
32320;BME280;19080;51.750;5.888;2023-03-25T05:43:06;99867.59;;;8.66;100.00
32320;BME280;19080;51.750;5.888;2023-03-25T05:45:32;99868.38;;;8.51;100.00
32320;BME280;19080;51.750;5.888;2023-03-25T05:48:02;99891.38;;;8.64;100.00
32320;BME280;19080;51.750;5.888;2023-03-25T05:50:29;99894.91;;;8.63;100.00
32320;BME280;19080;51.750;5.888;2023-03-25T05:52:57;99864.00;;;8.56;100.00
32320;BME280;19080;51.750;5.888;2023-03-25T05:55:25;99929.50;;;8.95;100.00
32320;BME280;19080;51.750;5.888;2023-03-25T05:57:52;99954.28;;;9.08;100.00
32320;BME280;19080;51.750;5.888;2023-03-25T06:00:19;99977.34;;;9.26;100.00
32320;BME280;19080;51.750;5.888;2023-03-25T06:02:50;99972.91;;;9.20;100.00
32320;BME280;19080;51.750;5.888;2023-03-25T06:05:17;99942.78;;;9.01;100.00
32320;BME280;19080;51.750;5.888;2023-03-25T06:07:49;99941.88;;;8.99;100.00
32320;BME280;19080;51.750;5.888;2023-03-25T06:10:16;99951.59;;;9.02;100.00
32320;BME280;19080;51.750;5.888;2023-03-25T06:12:44;99968.41;;;9.05;100.00
32320;BME280;19080;51.750;5.888;2023-03-25T06:15:14;99885.16;;;8.58;100.00
32320;BME280;19080;51.750;5.888;2023-03-25T06:17:43;99872.69;;;8.41;100.00
32320;BME280;19080;51.750;5.888;2023-03-25T06:20:13;99950.63;;;8.89;100.00
32320;BME280;19080;51.750;5.888;2023-03-25T06:22:44;99987.88;;;9.17;100.00
32320;BME280;19080;51.750;5.888;2023-03-25T06:25:14;99902.84;;;8.68;100.00
32320;BME280;19080;51.750;5.888;2023-03-25T06:27:46;99831.25;;;8.37;100.00
32320;BME280;19080;51.750;5.888;2023-03-25T06:30:17;99904.69;;;8.78;100.00
32320;BME280;19080;51.750;5.888;2023-03-25T06:32:44;99949.00;;;9.06;100.00
32320;BME280;19080;51.750;5.888;2023-03-25T06:35:16;100007.53;;;9.49;100.00
32320;BME280;19080;51.750;5.888;2023-03-25T06:37:46;99959.72;;;9.28;100.00
32320;BME280;19080;51.750;5.888;2023-03-25T06:40:19;99957.94;;;9.25;100.00
32320;BME280;19080;51.750;5.888;2023-03-25T06:42:47;99902.16;;;8.96;100.00
32320;BME280;19080;51.750;5.888;2023-03-25T06:45:23;99974.78;;;9.35;100.00
32320;BME280;19080;51.750;5.888;2023-03-25T06:48:11;99981.78;;;9.25;100.00
32320;BME280;19080;51.750;5.888;2023-03-25T06:50:37;99990.53;;;9.17;100.00
32320;BME280;19080;51.750;5.888;2023-03-25T06:53:04;99899.34;;;8.66;100.00
32320;BME280;19080;51.750;5.888;2023-03-25T06:55:31;99882.56;;;8.62;100.00
32320;BME280;19080;51.750;5.888;2023-03-25T06:57:57;99917.19;;;9.00;100.00
32320;BME280;19080;51.750;5.888;2023-03-25T07:00:24;100018.34;;;9.90;100.00
32320;BME280;19080;51.750;5.888;2023-03-25T07:02:52;99753.00;;;8.79;100.00
32320;BME280;19080;51.750;5.888;2023-03-25T07:05:18;99925.63;;;10.07;100.00
32320;BME280;19080;51.750;5.888;2023-03-25T07:07:45;99946.91;;;10.27;100.00
32320;BME280;19080;51.750;5.888;2023-03-25T07:10:12;99981.41;;;10.53;100.00
32320;BME280;19080;51.750;5.888;2023-03-25T07:12:39;99935.44;;;10.32;100.00
32320;BME280;19080;51.750;5.888;2023-03-25T07:15:07;99980.56;;;10.75;100.00
32320;BME280;19080;51.750;5.888;2023-03-25T07:17:36;99983.19;;;10.54;100.00
32320;BME280;19080;51.750;5.888;2023-03-25T07:20:04;99984.06;;;10.45;100.00
32320;BME280;19080;51.750;5.888;2023-03-25T07:22:31;99903.50;;;9.90;100.00
32320;BME280;19080;51.750;5.888;2023-03-25T07:24:58;100006.19;;;10.39;100.00
32320;BME280;19080;51.750;5.888;2023-03-25T07:27:25;99942.38;;;9.97;100.00
32320;BME280;19080;51.750;5.888;2023-03-25T07:30:02;99906.94;;;9.67;100.00
32320;BME280;19080;51.750;5.888;2023-03-25T07:32:30;99922.84;;;9.67;100.00
32320;BME280;19080;51.750;5.888;2023-03-25T07:34:56;100006.09;;;10.18;100.00
32320;BME280;19080;51.750;5.888;2023-03-25T07:37:23;99997.25;;;10.16;100.00
32320;BME280;19080;51.750;5.888;2023-03-25T07:39:49;99993.69;;;10.08;100.00
32320;BME280;19080;51.750;5.888;2023-03-25T07:42:16;100009.69;;;10.29;100.00
32320;BME280;19080;51.750;5.888;2023-03-25T07:45:09;100018.53;;;10.42;100.00
32320;BME280;19080;51.750;5.888;2023-03-25T07:47:39;99999.09;;;10.51;100.00
32320;BME280;19080;51.750;5.888;2023-03-25T07:50:06;100018.59;;;10.77;100.00
32320;BME280;19080;51.750;5.888;2023-03-25T07:52:33;99926.59;;;10.33;100.00
32320;BME280;19080;51.750;5.888;2023-03-25T07:55:01;99951.34;;;10.48;100.00
32320;BME280;19080;51.750;5.888;2023-03-25T07:57:27;99928.34;;;10.25;100.00
32320;BME280;19080;51.750;5.888;2023-03-25T07:59:56;100010.59;;;10.34;100.00
32320;BME280;19080;51.750;5.888;2023-03-25T08:02:22;100002.34;;;9.70;100.00
32320;BME280;19080;51.750;5.888;2023-03-25T08:04:49;99960.59;;;9.25;100.00
32320;BME280;19080;51.750;5.888;2023-03-25T08:07:15;99997.72;;;9.34;100.00
32320;BME280;19080;51.750;5.888;2023-03-25T08:09:42;99888.72;;;8.60;100.00
32320;BME280;19080;51.750;5.888;2023-03-25T08:12:09;100023.25;;;9.26;100.00
32320;BME280;19080;51.750;5.888;2023-03-25T08:14:35;99941.81;;;8.90;100.00
32320;BME280;19080;51.750;5.888;2023-03-25T08:17:04;100043.78;;;9.58;100.00
32320;BME280;19080;51.750;5.888;2023-03-25T08:19:32;99979.16;;;9.30;100.00
32320;BME280;19080;51.750;5.888;2023-03-25T08:21:59;100016.47;;;9.69;100.00
32320;BME280;19080;51.750;5.888;2023-03-25T08:24:26;100001.50;;;9.76;100.00
32320;BME280;19080;51.750;5.888;2023-03-25T08:26:55;100034.34;;;10.13;100.00
32320;BME280;19080;51.750;5.888;2023-03-25T08:29:22;99962.69;;;9.92;100.00
32320;BME280;19080;51.750;5.888;2023-03-25T08:31:50;100026.41;;;10.19;100.00
32320;BME280;19080;51.750;5.888;2023-03-25T08:34:19;100039.78;;;10.34;100.00
32320;BME280;19080;51.750;5.888;2023-03-25T08:36:46;99979.56;;;10.15;100.00
32320;BME280;19080;51.750;5.888;2023-03-25T08:39:13;100054.88;;;10.78;100.00
32320;BME280;19080;51.750;5.888;2023-03-25T08:41:43;99979.66;;;10.58;100.00
32320;BME280;19080;51.750;5.888;2023-03-25T08:44:10;99982.31;;;10.77;100.00
32320;BME280;19080;51.750;5.888;2023-03-25T08:46:37;100060.22;;;11.45;100.00
32320;BME280;19080;51.750;5.888;2023-03-25T08:49:04;100046.03;;;11.46;100.00
32320;BME280;19080;51.750;5.888;2023-03-25T08:51:31;99951.34;;;10.96;100.00
32320;BME280;19080;51.750;5.888;2023-03-25T08:53:58;99977.00;;;11.06;100.00
32320;BME280;19080;51.750;5.888;2023-03-25T08:56:26;100048.69;;;11.49;100.00
32320;BME280;19080;51.750;5.888;2023-03-25T08:58:53;100049.56;;;11.66;100.00
32320;BME280;19080;51.750;5.888;2023-03-25T09:01:20;100006.00;;;12.12;100.00
32320;BME280;19080;51.750;5.888;2023-03-25T09:03:47;99990.31;;;13.00;100.00
32320;BME280;19080;51.750;5.888;2023-03-25T09:06:13;100047.66;;;13.50;100.00
32320;BME280;19080;51.750;5.888;2023-03-25T09:08:41;100051.13;;;13.57;100.00
32320;BME280;19080;51.750;5.888;2023-03-25T09:11:07;100056.63;;;13.40;100.00
32320;BME280;19080;51.750;5.888;2023-03-25T09:13:34;100059.63;;;12.93;100.00
32320;BME280;19080;51.750;5.888;2023-03-25T09:16:01;100077.34;;;12.97;100.00
32320;BME280;19080;51.750;5.888;2023-03-25T09:18:27;99997.97;;;12.18;100.00
32320;BME280;19080;51.750;5.888;2023-03-25T09:20:58;100071.56;;;12.17;100.00
32320;BME280;19080;51.750;5.888;2023-03-25T09:23:26;99986.72;;;11.29;100.00
32320;BME280;19080;51.750;5.888;2023-03-25T09:25:52;100023.91;;;11.35;100.00
32320;BME280;19080;51.750;5.888;2023-03-25T09:28:19;100043.41;;;11.34;100.00
32320;BME280;19080;51.750;5.888;2023-03-25T09:30:45;99988.50;;;11.13;100.00
32320;BME280;19080;51.750;5.888;2023-03-25T09:33:12;100058.41;;;11.90;100.00
32320;BME280;19080;51.750;5.888;2023-03-25T09:35:39;100070.47;;;12.65;100.00
32320;BME280;19080;51.750;5.888;2023-03-25T09:38:07;100043.97;;;12.41;100.00
32320;BME280;19080;51.750;5.888;2023-03-25T09:40:33;99971.63;;;11.52;100.00
32320;BME280;19080;51.750;5.888;2023-03-25T09:48:31;100078.78;;;11.85;100.00
32320;BME280;19080;51.750;5.888;2023-03-25T09:51:05;100058.41;;;11.79;100.00
32320;BME280;19080;51.750;5.888;2023-03-25T09:53:44;100076.06;;;12.11;100.00
32320;BME280;19080;51.750;5.888;2023-03-25T09:56:26;100055.56;;;12.23;100.00
32320;BME280;19080;51.750;5.888;2023-03-25T09:59:00;99993.66;;;11.97;100.00
32320;BME280;19080;51.750;5.888;2023-03-25T10:07:29;100075.25;;;11.83;100.00
32320;BME280;19080;51.750;5.888;2023-03-25T10:15:29;100093.75;;;10.59;100.00
32320;BME280;19080;51.750;5.888;2023-03-25T10:23:37;100012.09;;;9.77;100.00
32320;BME280;19080;51.750;5.888;2023-03-25T10:26:14;100067.91;;;10.08;100.00
32320;BME280;19080;51.750;5.888;2023-03-25T10:28:49;100077.78;;;10.44;100.00
32320;BME280;19080;51.750;5.888;2023-03-25T10:31:19;100086.69;;;10.61;100.00
32320;BME280;19080;51.750;5.888;2023-03-25T10:33:57;100115.06;;;10.88;100.00
32320;BME280;19080;51.750;5.888;2023-03-25T10:36:46;100119.53;;;11.11;100.00
32320;BME280;19080;51.750;5.888;2023-03-25T10:39:19;100020.34;;;10.57;100.00
32320;BME280;19080;51.750;5.888;2023-03-25T10:41:54;100092.91;;;10.71;100.00
32320;BME280;19080;51.750;5.888;2023-03-25T10:44:24;100027.38;;;10.33;100.00
32320;BME280;19080;51.750;5.888;2023-03-25T10:47:16;100106.25;;;11.01;100.00
32320;BME280;19080;51.750;5.888;2023-03-25T10:49:42;100096.41;;;12.16;100.00
32320;BME280;19080;51.750;5.888;2023-03-25T10:52:10;100074.06;;;12.55;100.00
32320;BME280;19080;51.750;5.888;2023-03-25T10:54:40;100111.16;;;12.89;100.00
32320;BME280;19080;51.750;5.888;2023-03-25T10:57:13;100013.66;;;12.65;100.00
32320;BME280;19080;51.750;5.888;2023-03-25T11:00:07;100074.97;;;13.74;100.00
32320;BME280;19080;51.750;5.888;2023-03-25T11:02:46;100078.78;;;14.97;100.00
32320;BME280;19080;51.750;5.888;2023-03-25T11:05:17;100078.72;;;15.57;100.00
32320;BME280;19080;51.750;5.888;2023-03-25T11:07:49;100077.88;;;16.01;100.00
32320;BME280;19080;51.750;5.888;2023-03-25T11:10:25;100103.69;;;16.05;100.00
32320;BME280;19080;51.750;5.888;2023-03-25T11:12:53;100038.91;;;16.31;100.00
32320;BME280;19080;51.750;5.888;2023-03-25T11:15:35;100112.97;;;16.77;100.00
32320;BME280;19080;51.750;5.888;2023-03-25T11:18:07;100094.38;;;16.69;100.00
32320;BME280;19080;51.750;5.888;2023-03-25T11:20:39;99983.66;;;16.25;100.00
32320;BME280;19080;51.750;5.888;2023-03-25T11:23:24;100019.34;;;15.83;100.00
32320;BME280;19080;51.750;5.888;2023-03-25T11:25:54;100039.81;;;15.85;100.00
32320;BME280;19080;51.750;5.888;2023-03-25T11:28:34;100110.13;;;16.84;100.00
32320;BME280;19080;51.750;5.888;2023-03-25T11:31:08;100034.94;;;16.07;100.00
32320;BME280;19080;51.750;5.888;2023-03-25T11:33:36;100092.34;;;15.91;100.00
32320;BME280;19080;51.750;5.888;2023-03-25T11:36:25;100101.56;;;15.21;100.00
32320;BME280;19080;51.750;5.888;2023-03-25T11:39:02;100115.78;;;14.60;100.00
32320;BME280;19080;51.750;5.888;2023-03-25T11:41:31;100109.59;;;13.80;100.00
32320;BME280;19080;51.750;5.888;2023-03-25T11:44:00;100093.91;;;13.43;100.00
32320;BME280;19080;51.750;5.888;2023-03-25T11:46:27;100104.09;;;13.92;100.00
32320;BME280;19080;51.750;5.888;2023-03-25T11:48:54;100097.53;;;14.23;100.00
32320;BME280;19080;51.750;5.888;2023-03-25T11:51:25;100108.22;;;14.20;100.00
32320;BME280;19080;51.750;5.888;2023-03-25T11:53:57;100120.13;;;13.90;100.00
32320;BME280;19080;51.750;5.888;2023-03-25T11:56:32;100127.31;;;13.84;100.00
32320;BME280;19080;51.750;5.888;2023-03-25T11:59:00;100086.84;;;14.92;100.00
32320;BME280;19080;51.750;5.888;2023-03-25T12:01:43;100086.22;;;16.31;100.00
32320;BME280;19080;51.750;5.888;2023-03-25T12:04:19;100053.28;;;15.81;100.00
32320;BME280;19080;51.750;5.888;2023-03-25T12:07:08;100116.38;;;15.94;100.00
32320;BME280;19080;51.750;5.888;2023-03-25T12:09:35;100109.34;;;15.88;100.00
32320;BME280;19080;51.750;5.888;2023-03-25T12:12:20;100111.66;;;16.08;100.00
32320;BME280;19080;51.750;5.888;2023-03-25T12:15:21;100099.28;;;16.01;95.00
32320;BME280;19080;51.750;5.888;2023-03-25T12:18:00;100088.09;;;15.27;98.89
32320;BME280;19080;51.750;5.888;2023-03-25T12:23:19;100102.41;;;15.77;97.03
32320;BME280;19080;51.750;5.888;2023-03-25T12:25:56;100103.78;;;15.99;93.03
32320;BME280;19080;51.750;5.888;2023-03-25T12:33:49;100079.53;;;17.30;74.37
32320;BME280;19080;51.750;5.888;2023-03-25T12:47:29;100047.09;;;17.39;62.29
32320;BME280;19080;51.750;5.888;2023-03-25T12:50:20;100062.69;;;16.02;75.56
32320;BME280;19080;51.750;5.888;2023-03-25T12:55:46;99981.28;;;15.21;86.92
32320;BME280;19080;51.750;5.888;2023-03-25T12:58:45;100087.50;;;16.54;82.65
32320;BME280;19080;51.750;5.888;2023-03-25T13:07:17;100093.28;;;15.88;96.74
32320;BME280;19080;51.750;5.888;2023-03-25T13:13:00;100092.69;;;14.57;100.00
32320;BME280;19080;51.750;5.888;2023-03-25T13:15:24;100019.06;;;13.64;100.00
32320;BME280;19080;51.750;5.888;2023-03-25T13:18:00;100059.28;;;13.42;100.00
32320;BME280;19080;51.750;5.888;2023-03-25T13:20:33;100085.22;;;13.20;100.00
32320;BME280;19080;51.750;5.888;2023-03-25T13:23:04;100097.06;;;12.65;100.00
32320;BME280;19080;51.750;5.888;2023-03-25T13:25:42;100023.75;;;12.07;100.00
32320;BME280;19080;51.750;5.888;2023-03-25T13:28:12;100086.63;;;12.20;100.00
32320;BME280;19080;51.750;5.888;2023-03-25T13:30:42;100006.16;;;11.55;100.00
32320;BME280;19080;51.750;5.888;2023-03-25T13:33:15;100047.81;;;11.27;100.00
32320;BME280;19080;51.750;5.888;2023-03-25T13:35:52;100144.34;;;11.25;100.00
32320;BME280;19080;51.750;5.888;2023-03-25T13:38:31;100124.66;;;10.47;100.00
32320;BME280;19080;51.750;5.888;2023-03-25T13:41:20;100126.50;;;10.66;100.00
32320;BME280;19080;51.750;5.888;2023-03-25T13:44:03;99979.25;;;12.34;100.00
32320;BME280;19080;51.750;5.888;2023-03-25T13:46:37;100076.41;;;13.06;100.00
32320;BME280;19080;51.750;5.888;2023-03-25T13:49:17;100116.50;;;12.83;100.00
32320;BME280;19080;51.750;5.888;2023-03-25T13:51:46;100094.59;;;13.66;100.00
32320;BME280;19080;51.750;5.888;2023-03-25T13:54:19;99997.69;;;14.98;100.00
32320;BME280;19080;51.750;5.888;2023-03-25T14:00:58;100120.47;;;16.13;100.00
32320;BME280;19080;51.750;5.888;2023-03-25T14:06:29;100028.59;;;14.56;100.00
32320;BME280;19080;51.750;5.888;2023-03-25T14:12:06;100110.72;;;15.61;97.71
32320;BME280;19080;51.750;5.888;2023-03-25T14:14:46;100089.44;;;16.48;85.71
32320;BME280;19080;51.750;5.888;2023-03-25T14:17:15;100095.44;;;16.16;82.56
32320;BME280;19080;51.750;5.888;2023-03-25T14:19:48;100088.19;;;15.21;87.62
32320;BME280;19080;51.750;5.888;2023-03-25T14:22:19;100043.81;;;14.51;97.38
32320;BME280;19080;51.750;5.888;2023-03-25T14:24:48;100115.16;;;15.06;90.66
32320;BME280;19080;51.750;5.888;2023-03-25T14:27:34;100115.34;;;16.01;89.79
32320;BME280;19080;51.750;5.888;2023-03-25T14:30:05;100021.91;;;17.11;72.13
32320;BME280;19080;51.750;5.888;2023-03-25T14:32:38;100020.31;;;16.64;68.80
32320;BME280;19080;51.750;5.888;2023-03-25T14:43:34;100136.19;;;14.65;89.37
32320;BME280;19080;51.750;5.888;2023-03-25T14:48:34;100135.00;;;14.14;93.93
32320;BME280;19080;51.750;5.888;2023-03-25T14:56:52;100146.69;;;14.01;100.00
32320;BME280;19080;51.750;5.888;2023-03-25T14:59:24;100138.31;;;15.07;96.62